Time;durP1;ratioP1;P1;durP2;ratioP2;P2;SDS_P1;SDS_P2;PMS_P1;PMS_P2;Temp;Humidity;BMP_temperature;BMP_pressure;BME280_temperature;BME280_humidity;BME280_pressure;Samples;Min_cycle;Max_cycle;Signal;HPM_P1;HPM_P2
2023/11/07 08:43:36;;;;;;;;;2.00;2.00;;;;;14.00;73.62;101149.06;5127868;27;45949;-62
2023/11/07 08:46:01;;;;;;;;;2.33;2.33;;;;;14.32;72.97;101156.88;5102964;27;45436;-68
2023/11/07 08:56:32;;;;;;;;;4.75;4.75;;;;;14.31;64.66;101171.19;5128729;27;46319;-96
2023/11/07 08:58:58;;;;;;;;;6.00;4.67;;;;;13.97;64.36;101184.81;5116669;27;46105;-93
2023/11/07 09:01:23;;;;;;;;;2.00;2.00;;;;;13.32;64.27;101125.50;5110665;27;45536;-93
2023/11/07 09:03:49;;;;;;;;;6.00;5.00;;;;;13.04;64.08;101121.81;5115784;27;45584;-93
2023/11/07 09:06:14;;;;;;;;;5.00;5.00;;;;;12.82;64.48;101146.16;5108308;27;48054;-94
2023/11/07 09:08:40;;;;;;;;;3.50;3.50;;;;;12.23;64.95;101097.88;5108705;27;45790;-94
2023/11/07 09:11:05;;;;;;;;;8.00;6.25;;;;;11.98;65.30;101082.41;5109467;27;45469;-93
2023/11/07 09:13:31;;;;;;;;;4.00;4.00;;;;;11.81;65.65;101084.16;5106403;27;46108;-94
2023/11/07 09:15:59;;;;;;;;;1.50;1.50;;;;;12.16;65.64;101176.38;5113439;27;47133;-94
2023/11/07 09:18:26;;;;;;;;;4.50;4.00;;;;;12.04;66.16;101193.81;5109849;27;45486;-93
2023/11/07 09:20:56;;;;;;;;;5.25;5.25;;;;;11.53;66.68;101132.63;5107545;27;45808;-93
2023/11/07 09:23:22;;;;;;;;;5.25;5.25;;;;;11.78;66.77;101192.53;5100202;27;46025;-94
2023/11/07 09:25:47;;;;;;;;;7.00;5.00;;;;;11.29;66.93;101136.47;5105141;27;48061;-94
2023/11/07 09:28:13;;;;;;;;;3.00;3.00;;;;;11.23;67.16;101134.13;5112811;27;45467;-93
2023/11/07 09:30:38;;;;;;;;;3.75;3.75;;;;;11.42;67.37;101192.53;5116574;27;46874;-94
2023/11/07 09:33:06;;;;;;;;;5.50;3.75;;;;;10.85;67.37;101139.53;5111538;27;45745;-91
2023/11/07 09:35:35;;;;;;;;;5.00;4.75;;;;;10.70;68.25;101142.00;5110144;27;47128;-91
2023/11/07 09:38:03;;;;;;;;;4.25;4.25;;;;;10.85;67.58;101166.97;5102148;27;45679;-91
2023/11/07 09:40:29;;;;;;;;;3.75;3.75;;;;;10.52;68.47;101123.38;5103161;27;45814;-91
2023/11/07 09:42:55;;;;;;;;;5.25;2.75;;;;;10.47;68.36;101125.38;5105363;27;45753;-91
2023/11/07 09:45:21;;;;;;;;;7.25;5.00;;;;;10.90;68.35;101198.59;5108972;27;48123;-89
2023/11/07 09:47:49;;;;;;;;;5.75;4.00;;;;;10.84;68.71;101222.81;5107587;27;46099;-93
2023/11/07 09:50:17;;;;;;;;;6.25;4.75;;;;;10.77;68.41;101204.53;5112245;27;45360;-90
2023/11/07 09:52:44;;;;;;;;;3.00;3.00;;;;;10.74;69.01;101214.41;5109227;27;45407;-90
2023/11/07 09:55:12;;;;;;;;;4.75;4.75;;;;;10.62;68.93;101211.41;5109975;27;47441;-92
2023/11/07 09:57:56;;;;;;;;;4.50;4.00;;;;;10.57;68.71;101204.56;5104808;27;46135;-91
2023/11/07 10:00:25;;;;;;;;;3.25;3.00;;;;;10.64;69.54;101221.97;5097861;27;45760;-90
2023/11/07 10:02:50;;;;;;;;;4.50;4.50;;;;;10.23;70.01;101153.91;5106785;27;45548;-91
2023/11/07 10:05:18;;;;;;;;;4.50;4.50;;;;;10.36;69.49;101178.06;5109827;27;46843;-89
2023/11/07 10:07:47;;;;;;;;;7.50;5.00;;;;;10.27;68.71;101172.25;5095554;27;45682;-91
2023/11/07 10:10:16;;;;;;;;;5.00;3.00;;;;;10.60;68.83;101225.69;5087265;27;45555;-92
2023/11/07 10:12:43;;;;;;;;;3.50;3.50;;;;;10.32;68.56;101184.44;5094670;27;45671;-91
2023/11/07 10:15:18;;;;;;;;;4.00;3.25;;;;;10.58;69.04;101231.06;5097458;27;47222;-91
2023/11/07 10:18:00;;;;;;;;;2.50;2.50;;;;;10.58;68.87;101230.22;5097363;27;45398;-90
2023/11/07 10:20:28;;;;;;;;;3.00;3.00;;;;;10.60;69.52;101231.88;5093629;27;45514;-91
2023/11/07 10:22:53;;;;;;;;;4.00;3.75;;;;;10.62;68.32;101232.66;5098901;27;45446;-91
2023/11/07 10:25:33;;;;;;;;;4.00;2.50;;;;;10.62;69.07;101235.31;5102849;27;47502;-92
2023/11/07 10:28:08;;;;;;;;;6.50;3.00;;;;;10.66;69.32;101233.34;5098358;27;45464;-89
2023/11/07 10:30:41;;;;;;;;;4.50;3.25;;;;;10.70;69.69;101224.31;5096916;27;45491;-87
2023/11/07 10:33:11;;;;;;;;;5.50;4.25;;;;;10.59;69.30;101208.88;5094677;27;45359;-87
2023/11/07 10:35:56;;;;;;;;;5.00;3.25;;;;;10.77;68.91;101231.09;5086344;27;45426;-93
2023/11/07 10:38:22;;;;;;;;;3.25;3.25;;;;;10.65;68.89;101211.28;5091524;27;45518;-93
2023/11/07 10:40:48;;;;;;;;;5.75;3.75;;;;;10.55;69.19;101183.44;5092734;27;45597;-92
2023/11/07 10:43:33;;;;;;;;;3.25;2.25;;;;;10.55;68.90;101178.13;5104023;27;45439;-93
2023/11/07 10:46:03;;;;;;;;;3.25;3.00;;;;;10.77;68.83;101193.03;5097689;27;47811;-93
2023/11/07 10:48:32;;;;;;;;;5.00;5.00;;;;;10.68;69.32;101173.09;5097779;27;45369;-93
2023/11/07 10:51:04;;;;;;;;;3.25;3.25;;;;;10.54;68.33;101145.41;5104541;27;45761;-92
2023/11/07 10:53:33;;;;;;;;;7.25;4.25;;;;;10.72;68.94;101164.06;5088976;27;45426;-92
2023/11/07 10:55:59;;;;;;;;;4.00;3.25;;;;;10.98;68.71;101199.09;5094905;27;47896;-93
2023/11/07 10:58:30;;;;;;;;;3.00;3.00;;;;;10.89;68.35;101176.50;5091129;27;45430;-92
2023/11/07 11:01:01;;;;;;;;;3.00;2.75;;;;;10.85;68.30;101139.53;5097516;27;45588;-93
2023/11/07 11:03:28;;;;;;;;;2.75;2.75;;;;;11.19;67.37;101183.03;5093906;27;45486;-93
2023/11/07 11:05:54;;;;;;;;;3.00;3.00;;;;;10.87;67.84;101122.59;5086352;27;47154;-93
2023/11/07 11:08:23;;;;;;;;;7.00;4.00;;;;;11.32;67.76;101181.50;5093834;27;46179;-93
2023/11/07 11:10:52;;;;;;;;;2.25;2.25;;;;;11.64;66.65;101233.13;5099770;27;45593;-93
2023/11/07 11:13:24;;;;;;;;;2.50;1.00;;;;;11.38;66.19;101175.03;5115335;27;45389;-93
2023/11/07 11:15:53;;;;;;;;;4.25;3.25;;;;;11.25;65.89;101157.97;5114014;27;47333;-93
2023/11/07 11:18:28;;;;;;;;;3.00;3.00;;;;;11.42;65.97;101186.34;5093446;27;46173;-93
2023/11/07 11:21:27;;;;;;;;;4.25;3.00;;;;;11.41;65.99;101166.88;5115068;27;44729;-93
2023/11/07 11:24:07;;;;;;;;;3.25;3.25;;;;;11.76;65.78;101220.97;5099235;27;45500;-93
2023/11/07 11:26:54;;;;;;;;;2.00;2.00;;;;;11.25;66.65;101126.06;5107702;27;47679;-93
2023/11/07 11:29:27;;;;;;;;;6.25;3.50;;;;;11.90;66.58;101226.44;5104887;27;45524;-92
2023/11/07 11:31:54;;;;;;;;;5.75;5.75;;;;;11.52;65.89;101141.56;5105831;27;45388;-92
2023/11/07 11:34:25;;;;;;;;;5.75;4.00;;;;;11.98;66.27;101210.97;5105192;27;44979;-93
2023/11/07 11:36:59;;;;;;;;;1.75;1.75;;;;;11.84;65.87;101177.09;5132484;27;47107;-93
2023/11/07 11:39:28;;;;;;;;;4.00;4.00;;;;;12.09;65.81;101217.53;5126193;27;45324;-92
2023/11/07 11:42:04;;;;;;;;;4.25;4.00;;;;;11.69;65.53;101149.50;5120137;27;44813;-93
2023/11/07 12:00:50;;;;;;;;;5.75;3.00;;;;;10.17;64.71;100860.53;5013871;28;45316;-96
2023/11/07 12:03:17;;;;;;;;;2.25;2.25;;;;;12.50;64.55;101197.63;5018256;28;45305;-96
2023/11/07 12:21:23;;;;;;;;;3.00;3.00;;;;;12.11;63.05;101150.00;4996015;28;45405;-96
2023/11/07 12:23:50;;;;;;;;;4.50;2.25;;;;;12.39;62.54;101198.22;4989219;28;45406;-96
2023/11/07 12:26:16;;;;;;;;;3.00;1.00;;;;;12.38;63.43;101200.03;4987545;28;45239;-95
2023/11/07 12:28:43;;;;;;;;;2.00;2.00;;;;;12.12;63.37;101151.72;4998727;28;45421;-96
